createdAt,value
2023-02-21T00:00:17.783Z,0.00
2023-02-21T00:01:17.140Z,0.00
2023-02-21T00:02:17.392Z,0.02
2023-02-21T00:03:18.929Z,0.00
2023-02-21T00:04:18.040Z,0.00
2023-02-21T00:05:17.447Z,0.04
2023-02-21T00:06:18.678Z,0.00
2023-02-21T00:07:18.962Z,0.00
2023-02-21T00:08:17.246Z,0.02
2023-02-21T00:09:18.589Z,0.01
2023-02-21T00:10:18.836Z,0.00
2023-02-21T00:11:17.216Z,0.00
2023-02-21T00:12:18.455Z,0.00
2023-02-21T00:13:17.025Z,0.00
2023-02-21T00:14:18.276Z,0.02
2023-02-21T00:15:18.182Z,0.02
2023-02-21T00:16:16.931Z,0.00
2023-02-21T00:17:19.261Z,0.00
2023-02-21T00:18:17.468Z,0.02
2023-02-21T00:19:18.765Z,0.00
2023-02-21T00:20:18.680Z,0.00
2023-02-21T00:21:19.321Z,0.01
2023-02-21T00:22:17.678Z,0.01
2023-02-21T00:23:17.857Z,0.00
2023-02-21T00:24:18.259Z,0.00
2023-02-21T00:25:17.536Z,0.02
2023-02-21T00:26:17.752Z,0.01
2023-02-21T00:27:17.748Z,0.02
2023-02-21T00:28:18.356Z,0.00
2023-02-21T00:29:17.707Z,0.00
2023-02-21T00:30:17.991Z,0.00
2023-02-21T00:31:18.291Z,0.01
2023-02-21T00:32:18.605Z,0.00
2023-02-21T00:33:17.891Z,0.02
2023-02-21T00:34:18.156Z,0.00
2023-02-21T00:35:18.460Z,0.00
2023-02-21T00:36:17.685Z,0.00
2023-02-21T00:37:17.988Z,0.00
2023-02-21T00:38:18.339Z,0.00
2023-02-21T00:39:16.595Z,0.02
2023-02-21T00:40:17.863Z,0.00
2023-02-21T00:41:17.358Z,0.00
2023-02-21T00:42:17.518Z,0.02
2023-02-21T00:43:17.734Z,0.02
2023-02-21T00:44:18.508Z,0.00
2023-02-21T00:45:18.362Z,0.00
2023-02-21T00:46:16.725Z,0.00
2023-02-21T00:47:17.942Z,0.00
2023-02-21T00:48:18.257Z,0.01
2023-02-21T00:49:17.554Z,0.00
2023-02-21T00:50:18.306Z,0.04
2023-02-21T00:51:17.447Z,0.02
2023-02-21T00:52:16.522Z,0.02
2023-02-21T00:53:17.763Z,0.02
2023-02-21T00:54:18.066Z,0.00
2023-02-21T00:55:16.377Z,0.00
2023-02-21T00:56:16.900Z,0.00
2023-02-21T00:57:16.963Z,0.00
2023-02-21T00:58:17.287Z,0.02
2023-02-21T00:59:17.515Z,0.00
2023-02-21T01:00:16.901Z,0.02
2023-02-21T01:01:17.527Z,0.00
2023-02-21T01:02:18.481Z,0.00
2023-02-21T01:03:17.685Z,0.00
2023-02-21T01:04:17.094Z,0.06
2023-02-21T01:05:17.268Z,0.00
2023-02-21T01:06:17.617Z,0.00
2023-02-21T01:07:18.384Z,0.00
2023-02-21T01:08:17.110Z,0.00
2023-02-21T01:09:17.499Z,0.00
2023-02-21T01:10:17.871Z,0.00
2023-02-21T01:11:18.122Z,0.02
2023-02-21T01:12:17.440Z,0.00
2023-02-21T01:13:17.673Z,0.02
2023-02-21T01:14:17.052Z,0.00
2023-02-21T01:15:17.257Z,0.02
2023-02-21T01:16:16.697Z,0.00
2023-02-21T01:17:16.949Z,0.00
2023-02-21T01:18:18.223Z,0.00
2023-02-21T01:19:16.487Z,0.02
2023-02-21T01:20:17.758Z,0.02
2023-02-21T01:21:16.221Z,0.00
2023-02-21T01:22:19.463Z,0.00
2023-02-21T01:23:17.632Z,0.00
2023-02-21T01:24:17.963Z,0.02
2023-02-21T01:25:16.237Z,0.00
2023-02-21T01:26:16.523Z,0.02
2023-02-21T01:27:17.818Z,0.00
2023-02-21T01:28:16.159Z,0.01
2023-02-21T01:29:17.430Z,0.02
2023-02-21T01:30:17.747Z,0.00
2023-02-21T01:31:16.505Z,0.00
2023-02-21T01:32:17.259Z,0.00
2023-02-21T01:33:18.228Z,0.00
2023-02-21T01:35:16.254Z,0.00
2023-02-21T01:36:18.598Z,0.00
2023-02-21T01:37:15.868Z,0.00
2023-02-21T01:38:16.175Z,0.02
2023-02-21T01:39:17.897Z,0.00
2023-02-21T01:40:16.760Z,0.00
2023-02-21T01:41:16.370Z,0.00
2023-02-21T01:42:16.397Z,0.00
2023-02-21T01:43:17.623Z,0.00
2023-02-21T01:44:15.948Z,0.00
2023-02-21T01:45:17.188Z,0.00
2023-02-21T01:46:17.470Z,0.00
2023-02-21T01:47:15.762Z,0.02
2023-02-21T01:48:16.091Z,0.00
2023-02-21T01:49:16.447Z,0.04
2023-02-21T01:50:15.658Z,0.00
2023-02-21T01:51:17.187Z,0.00
2023-02-21T01:52:16.239Z,0.02
2023-02-21T01:53:16.548Z,0.02
2023-02-21T01:54:15.802Z,0.00
2023-02-21T01:55:16.097Z,0.00
2023-02-21T01:56:17.350Z,0.00
2023-02-21T01:57:15.698Z,0.00
2023-02-21T01:58:15.994Z,0.02
2023-02-21T01:59:16.279Z,0.00
2023-02-21T02:00:15.592Z,0.00
2023-02-21T02:01:16.152Z,0.00
2023-02-21T02:02:16.147Z,0.02
2023-02-21T02:03:17.275Z,0.00
2023-02-21T02:04:15.640Z,0.00
2023-02-21T02:05:15.967Z,0.00
2023-02-21T02:06:16.198Z,0.00
2023-02-21T02:07:17.532Z,0.00
2023-02-21T02:08:15.736Z,0.01
2023-02-21T02:09:16.042Z,0.00
2023-02-21T02:10:16.326Z,0.00
2023-02-21T02:11:15.823Z,0.00
2023-02-21T02:12:15.837Z,0.01
2023-02-21T02:13:16.171Z,0.01
2023-02-21T02:14:15.441Z,0.00
2023-02-21T02:15:15.719Z,0.00
2023-02-21T02:16:16.052Z,0.00
2023-02-21T02:17:16.652Z,0.00
2023-02-21T02:18:16.544Z,0.00
2023-02-21T02:19:16.680Z,0.00
2023-02-21T02:20:16.203Z,0.02
2023-02-21T02:21:15.759Z,0.00
2023-02-21T02:22:18.768Z,0.02
2023-02-21T02:23:16.023Z,0.00
2023-02-21T02:24:16.342Z,0.00
2023-02-21T02:25:15.663Z,0.01
2023-02-21T02:26:18.952Z,0.02
2023-02-21T02:27:15.167Z,0.00
2023-02-21T02:28:16.452Z,0.00
2023-02-21T02:29:16.730Z,0.00
2023-02-21T02:30:16.137Z,0.00
2023-02-21T02:31:15.741Z,0.00
2023-02-21T02:32:16.656Z,0.00
2023-02-21T02:33:16.953Z,0.01
2023-02-21T02:34:15.262Z,0.00
2023-02-21T02:35:16.530Z,0.00
2023-02-21T02:36:16.913Z,0.00
2023-02-21T02:37:15.178Z,0.00
2023-02-21T02:38:16.412Z,0.00
2023-02-21T02:39:15.753Z,0.06
2023-02-21T02:40:15.008Z,0.02
2023-02-21T02:41:15.640Z,0.00
2023-02-21T02:42:15.714Z,0.00
2023-02-21T02:43:15.887Z,0.00
2023-02-21T02:44:15.157Z,0.02
2023-02-21T02:45:15.434Z,0.02
2023-02-21T02:46:16.758Z,0.00
2023-02-21T02:47:15.062Z,0.02
2023-02-21T02:48:15.290Z,0.00
2023-02-21T02:49:16.492Z,0.00
2023-02-21T02:50:16.756Z,0.00
2023-02-21T02:51:15.399Z,0.00
2023-02-21T02:52:16.284Z,0.02
2023-02-21T02:53:16.196Z,0.00
2023-02-21T02:54:14.940Z,0.02
2023-02-21T02:55:18.259Z,0.00
2023-02-21T02:56:15.524Z,0.02
2023-02-21T02:57:15.736Z,0.00
2023-02-21T02:58:15.158Z,0.00
2023-02-21T02:59:15.503Z,0.02
2023-02-21T03:00:15.738Z,0.01
2023-02-21T03:01:16.133Z,0.01
2023-02-21T03:02:16.156Z,0.00
2023-02-21T03:03:16.428Z,0.00
2023-02-21T03:04:15.671Z,0.00
2023-02-21T03:05:16.020Z,0.00
2023-02-21T03:06:16.261Z,0.00
2023-02-21T03:07:15.633Z,0.02
2023-02-21T03:08:14.823Z,0.02
2023-02-21T03:09:15.240Z,0.00
2023-02-21T03:10:17.573Z,0.02
2023-02-21T03:11:15.069Z,0.00
2023-02-21T03:12:15.047Z,0.00
2023-02-21T03:13:16.305Z,0.00
2023-02-21T03:14:14.596Z,0.02
2023-02-21T03:15:15.895Z,0.00
2023-02-21T03:16:16.662Z,0.08
2023-02-21T03:17:14.470Z,0.00
2023-02-21T03:18:14.789Z,0.02
2023-02-21T03:19:15.111Z,0.02
2023-02-21T03:20:16.381Z,0.00
2023-02-21T03:21:15.002Z,0.02
2023-02-21T03:22:15.033Z,0.05
2023-02-21T03:23:15.414Z,0.01
2023-02-21T03:24:14.585Z,0.06
2023-02-21T03:25:14.903Z,0.00
2023-02-21T03:26:16.129Z,0.04
2023-02-21T03:27:14.466Z,0.00
2023-02-21T03:28:14.802Z,0.02
2023-02-21T03:29:16.087Z,0.02
2023-02-21T03:30:14.407Z,0.00
2023-02-21T03:31:14.978Z,0.02
2023-02-21T03:32:15.011Z,0.02
2023-02-21T03:33:15.287Z,0.00
2023-02-21T03:34:15.537Z,0.00
2023-02-21T03:35:14.897Z,0.02
2023-02-21T03:36:15.228Z,0.01
2023-02-21T03:37:15.473Z,0.00
2023-02-21T03:38:15.040Z,0.02
2023-02-21T03:39:15.206Z,0.00
2023-02-21T03:40:14.648Z,0.02
2023-02-21T03:41:16.266Z,0.00
2023-02-21T03:42:16.233Z,0.00
2023-02-21T03:43:14.482Z,0.00
2023-02-21T03:44:15.916Z,0.02
2023-02-21T03:45:14.146Z,0.00
2023-02-21T03:46:14.482Z,0.02
2023-02-21T03:47:15.727Z,0.01
2023-02-21T03:48:20.192Z,0.00
2023-02-21T03:49:15.442Z,0.01
2023-02-21T03:50:15.640Z,0.00
2023-02-21T03:51:15.514Z,0.00
2023-02-21T03:52:15.372Z,0.00
2023-02-21T03:53:14.603Z,0.00
2023-02-21T03:54:15.968Z,0.00
2023-02-21T03:55:15.576Z,0.00
2023-02-21T03:56:14.529Z,0.01
2023-02-21T03:57:14.852Z,0.02
2023-02-21T03:58:14.114Z,0.00
2023-02-21T03:59:15.534Z,0.00
2023-02-21T04:00:15.751Z,0.01
2023-02-21T04:01:14.424Z,0.02
2023-02-21T04:02:15.289Z,0.00
2023-02-21T04:03:14.660Z,0.01
2023-02-21T04:04:13.982Z,0.02
2023-02-21T04:05:14.291Z,0.00
2023-02-21T04:06:14.669Z,0.00
2023-02-21T04:07:13.879Z,0.02
2023-02-21T04:08:14.189Z,0.02
2023-02-21T04:09:14.521Z,0.00
2023-02-21T04:10:13.808Z,0.00
2023-02-21T04:11:14.269Z,0.00
2023-02-21T04:12:14.467Z,0.00
2023-02-21T04:13:15.694Z,0.00
2023-02-21T04:14:18.098Z,0.00
2023-02-21T04:15:14.334Z,0.00
2023-02-21T04:16:14.680Z,0.00
2023-02-21T04:17:13.907Z,0.00
2023-02-21T04:18:14.770Z,0.00
2023-02-21T04:19:14.552Z,0.00
2023-02-21T04:20:13.800Z,0.02
2023-02-21T04:21:14.374Z,0.00
2023-02-21T04:22:15.371Z,0.00
2023-02-21T04:23:14.021Z,0.02
2023-02-21T04:24:14.383Z,0.02
2023-02-21T04:25:13.612Z,0.02
2023-02-21T04:26:13.919Z,0.00
2023-02-21T04:27:14.233Z,0.00
2023-02-21T04:28:14.549Z,0.00
2023-02-21T04:29:13.815Z,0.01
2023-02-21T04:30:14.313Z,0.02
2023-02-21T04:31:14.894Z,0.00
2023-02-21T04:32:13.824Z,0.00
2023-02-21T04:33:16.050Z,0.00
2023-02-21T04:34:14.330Z,0.00
2023-02-21T04:35:15.613Z,0.02
2023-02-21T04:36:13.875Z,0.00
2023-02-21T04:37:14.183Z,0.01
2023-02-21T04:38:13.558Z,0.02
2023-02-21T04:39:13.751Z,0.00
2023-02-21T04:40:14.395Z,0.02
2023-02-21T04:41:13.699Z,0.00
2023-02-21T04:42:14.809Z,0.00
2023-02-21T04:43:14.013Z,0.00
2023-02-21T04:44:14.409Z,0.02
2023-02-21T04:45:13.574Z,0.02
2023-02-21T04:46:14.005Z,0.00
2023-02-21T04:47:14.213Z,0.00
2023-02-21T04:48:13.515Z,0.00
2023-02-21T04:49:13.823Z,0.00
2023-02-21T04:50:13.344Z,0.02
2023-02-21T04:51:15.315Z,0.02
2023-02-21T04:52:14.185Z,0.00
2023-02-21T04:53:13.214Z,0.01
2023-02-21T04:54:15.612Z,0.02
2023-02-21T04:55:13.856Z,0.06
2023-02-21T04:56:14.164Z,0.01
2023-02-21T04:57:13.422Z,0.00
2023-02-21T04:58:14.110Z,0.00
2023-02-21T04:59:14.057Z,0.00
2023-02-21T05:00:13.351Z,0.00
2023-02-21T05:01:14.138Z,0.00
2023-02-21T05:02:13.968Z,0.00
2023-02-21T05:03:13.239Z,0.00
2023-02-21T05:04:13.684Z,0.02
2023-02-21T05:05:13.915Z,0.00
2023-02-21T05:06:13.167Z,0.00
2023-02-21T05:07:13.399Z,0.02
2023-02-21T05:08:13.703Z,0.02
2023-02-21T05:09:13.997Z,0.00
2023-02-21T05:10:13.268Z,0.00
2023-02-21T05:11:14.981Z,0.02
2023-02-21T05:12:13.882Z,0.01
2023-02-21T05:13:14.199Z,0.00
2023-02-21T05:14:13.455Z,0.00
2023-02-21T05:15:13.785Z,0.02
2023-02-21T05:16:14.094Z,0.02
2023-02-21T05:17:14.267Z,0.02
2023-02-21T05:18:13.637Z,0.02
2023-02-21T05:19:12.889Z,0.00
2023-02-21T05:20:14.153Z,0.00
2023-02-21T05:21:13.997Z,0.00
2023-02-21T05:22:12.797Z,0.02
2023-02-21T05:23:14.152Z,0.01
2023-02-21T05:24:13.475Z,0.02
2023-02-21T05:25:12.733Z,0.02
2023-02-21T05:26:13.053Z,0.01
2023-02-21T05:27:13.432Z,0.02
2023-02-21T05:28:13.702Z,0.01
2023-02-21T05:29:12.988Z,0.00
2023-02-21T05:30:13.362Z,0.00
2023-02-21T05:31:14.011Z,0.02
2023-02-21T05:32:12.964Z,0.02
2023-02-21T05:33:13.455Z,0.01
2023-02-21T05:34:13.557Z,0.01
2023-02-21T05:35:12.852Z,0.00
2023-02-21T05:36:13.143Z,0.02
2023-02-21T05:37:13.442Z,0.02
2023-02-21T05:38:12.730Z,0.00
2023-02-21T05:39:13.052Z,0.00
2023-02-21T05:40:13.299Z,0.00
2023-02-21T05:41:12.893Z,0.02
2023-02-21T05:42:12.912Z,0.02
2023-02-21T05:43:13.134Z,0.02
2023-02-21T05:44:13.467Z,0.02
2023-02-21T05:45:12.722Z,0.02
2023-02-21T05:46:13.027Z,0.02
2023-02-21T05:47:14.221Z,0.01
2023-02-21T05:48:13.652Z,0.01
2023-02-21T05:49:12.843Z,0.01
2023-02-21T05:50:13.148Z,0.02
2023-02-21T05:51:12.734Z,0.02
2023-02-21T05:52:12.738Z,0.03
2023-02-21T05:53:13.040Z,0.03
2023-02-21T05:54:15.831Z,0.02
2023-02-21T05:55:12.629Z,0.03
2023-02-21T05:56:12.971Z,0.04
2023-02-21T05:57:13.305Z,0.05
2023-02-21T05:58:12.591Z,0.05
2023-02-21T05:59:12.903Z,0.08
2023-02-21T06:00:13.345Z,0.08
2023-02-21T06:01:12.735Z,0.09
2023-02-21T06:02:12.812Z,0.11
2023-02-21T06:03:16.257Z,0.14
2023-02-21T06:04:12.421Z,0.17
2023-02-21T06:05:12.708Z,0.22
2023-02-21T06:06:13.024Z,0.26
2023-02-21T06:07:12.258Z,0.30
2023-02-21T06:08:13.973Z,0.37
2023-02-21T06:09:13.912Z,0.44
2023-02-21T06:10:13.144Z,0.51
2023-02-21T06:11:12.984Z,0.60
2023-02-21T06:12:16.068Z,0.72
2023-02-21T06:13:12.163Z,0.79
2023-02-21T06:14:13.492Z,0.94
2023-02-21T06:15:12.822Z,1.07
2023-02-21T06:16:12.213Z,1.27
2023-02-21T06:17:12.562Z,1.46
2023-02-21T06:18:13.301Z,1.69
2023-02-21T06:19:12.088Z,1.91
2023-02-21T06:20:12.428Z,2.10
2023-02-21T06:21:13.024Z,2.29
2023-02-21T06:22:12.032Z,2.47
2023-02-21T06:23:12.382Z,2.75
2023-02-21T06:24:12.790Z,3.04
2023-02-21T06:25:11.989Z,3.36
2023-02-21T06:26:12.351Z,3.75
2023-02-21T06:27:12.636Z,4.12
2023-02-21T06:28:13.024Z,4.51
2023-02-21T06:29:12.265Z,4.94
2023-02-21T06:30:12.669Z,5.40
2023-02-21T06:31:13.101Z,5.88
2023-02-21T06:32:12.210Z,6.36
2023-02-21T06:33:12.596Z,6.93
2023-02-21T06:34:17.120Z,7.61
2023-02-21T06:35:12.081Z,8.28
2023-02-21T06:36:12.441Z,9.06
2023-02-21T06:37:12.714Z,10.09
2023-02-21T06:38:15.937Z,10.75
2023-02-21T06:39:12.337Z,11.71
2023-02-21T06:40:12.639Z,12.59
2023-02-21T06:41:12.177Z,13.73
2023-02-21T06:42:12.913Z,15.11
2023-02-21T06:43:12.559Z,16.72
2023-02-21T06:44:11.820Z,18.55
2023-02-21T06:45:12.150Z,19.56
2023-02-21T06:46:12.481Z,21.45
2023-02-21T06:47:11.743Z,22.93
2023-02-21T06:48:12.205Z,23.96
2023-02-21T06:49:12.400Z,23.85
2023-02-21T06:50:11.693Z,23.93
2023-02-21T06:51:12.041Z,25.03
2023-02-21T06:52:12.359Z,26.02
2023-02-21T06:53:11.640Z,27.21
2023-02-21T06:54:12.154Z,27.95
2023-02-21T06:55:12.361Z,28.22
2023-02-21T06:56:11.651Z,28.03
2023-02-21T06:57:12.007Z,28.83
2023-02-21T06:58:12.331Z,34.48
2023-02-21T06:59:12.606Z,38.61
2023-02-21T07:00:12.031Z,40.19
2023-02-21T07:01:12.560Z,41.00
2023-02-21T07:02:12.626Z,37.95
2023-02-21T07:03:12.997Z,34.76
2023-02-21T07:04:12.391Z,37.56
2023-02-21T07:05:11.647Z,39.71
2023-02-21T07:06:12.409Z,40.76
2023-02-21T07:07:12.427Z,42.18
2023-02-21T07:08:11.606Z,45.78
2023-02-21T07:09:12.328Z,46.69
2023-02-21T07:10:12.419Z,46.18
2023-02-21T07:11:11.584Z,47.33
2023-02-21T07:12:11.914Z,49.47
2023-02-21T07:13:15.329Z,50.17
2023-02-21T07:14:11.525Z,48.83
2023-02-21T07:15:11.914Z,44.35
2023-02-21T07:16:12.229Z,51.76
2023-02-21T07:17:11.514Z,48.65
2023-02-21T07:18:14.943Z,56.36
2023-02-21T07:19:12.133Z,59.36
2023-02-21T07:20:11.437Z,61.44
2023-02-21T07:21:11.717Z,63.86
2023-02-21T07:22:12.066Z,66.49
2023-02-21T07:23:11.378Z,69.09
2023-02-21T07:24:12.163Z,70.36
2023-02-21T07:25:12.983Z,69.40
2023-02-21T07:26:11.321Z,65.83
2023-02-21T07:27:12.549Z,66.18
2023-02-21T07:28:12.396Z,71.78
2023-02-21T07:29:12.259Z,73.11
2023-02-21T07:30:11.737Z,72.05
2023-02-21T07:31:12.251Z,72.08
2023-02-21T07:32:11.390Z,72.90
2023-02-21T07:33:11.649Z,73.72
2023-02-21T07:34:11.973Z,74.95
2023-02-21T07:35:11.266Z,77.72
2023-02-21T07:36:14.058Z,81.03
2023-02-21T07:37:11.922Z,84.64
2023-02-21T07:38:12.187Z,88.11
2023-02-21T07:39:11.572Z,90.65
2023-02-21T07:40:11.909Z,92.06
2023-02-21T07:41:11.165Z,93.29
2023-02-21T07:42:13.390Z,94.98
2023-02-21T07:43:11.894Z,96.47
2023-02-21T07:44:11.214Z,98.71
2023-02-21T07:45:11.599Z,101.40
2023-02-21T07:46:11.905Z,106.49
2023-02-21T07:47:11.242Z,110.70
2023-02-21T07:48:13.504Z,113.99
2023-02-21T07:49:11.844Z,116.91
2023-02-21T07:50:11.163Z,119.40
2023-02-21T07:51:11.621Z,120.69
2023-02-21T07:52:11.860Z,120.73
2023-02-21T07:53:11.366Z,119.67
2023-02-21T07:54:11.586Z,116.98
2023-02-21T07:55:10.838Z,115.91
2023-02-21T07:56:11.088Z,114.69
2023-02-21T07:57:12.020Z,116.80
2023-02-21T07:58:11.767Z,121.82
2023-02-21T07:59:11.013Z,129.99
2023-02-21T08:00:11.322Z,138.69
2023-02-21T08:01:14.010Z,148.21
2023-02-21T08:02:10.893Z,152.60
2023-02-21T08:03:12.186Z,158.99
2023-02-21T08:04:12.533Z,160.78
2023-02-21T08:05:10.831Z,167.16
2023-02-21T08:06:11.192Z,171.70
2023-02-21T08:07:11.503Z,175.24
2023-02-21T08:08:11.803Z,177.97
2023-02-21T08:09:11.125Z,180.74
2023-02-21T08:10:11.577Z,185.52
2023-02-21T08:11:11.693Z,190.99
2023-02-21T08:12:11.184Z,196.22
2023-02-21T08:13:12.897Z,201.40
2023-02-21T08:14:11.685Z,207.49
2023-02-21T08:15:11.990Z,213.31
2023-02-21T08:16:11.429Z,215.12
2023-02-21T08:17:10.680Z,212.76
2023-02-21T08:18:11.499Z,211.66
2023-02-21T08:19:11.299Z,209.26
2023-02-21T08:20:10.562Z,206.31
2023-02-21T08:21:10.913Z,204.56
2023-02-21T08:22:11.197Z,204.52
2023-02-21T08:23:11.433Z,205.68
2023-02-21T08:24:11.165Z,202.93
2023-02-21T08:25:11.068Z,199.57
2023-02-21T08:26:16.585Z,197.42
2023-02-21T08:27:10.706Z,195.84
2023-02-21T08:28:11.314Z,194.60
2023-02-21T08:29:11.860Z,195.41
2023-02-21T08:30:10.700Z,198.47
2023-02-21T08:31:10.986Z,200.44
2023-02-21T08:32:11.271Z,201.32
2023-02-21T08:33:10.597Z,201.54
2023-02-21T08:34:11.042Z,205.68
2023-02-21T08:35:10.291Z,207.88
2023-02-21T08:36:10.598Z,211.79
2023-02-21T08:37:10.951Z,215.35
2023-02-21T08:38:10.187Z,217.51
2023-02-21T08:39:10.496Z,219.58
2023-02-21T08:40:10.933Z,223.46
2023-02-21T08:41:11.131Z,226.09
2023-02-21T08:42:11.451Z,227.89
2023-02-21T08:43:10.838Z,229.43
2023-02-21T08:44:11.178Z,229.91
2023-02-21T08:45:10.367Z,230.56
2023-02-21T08:46:10.748Z,234.61
2023-02-21T08:47:11.058Z,239.14
2023-02-21T08:48:11.242Z,243.08
2023-02-21T08:49:11.661Z,247.31
2023-02-21T08:50:10.935Z,250.82
2023-02-21T08:51:11.228Z,253.89
2023-02-21T08:52:11.649Z,257.16
2023-02-21T08:53:10.955Z,260.41
2023-02-21T08:54:10.164Z,265.78
2023-02-21T08:55:10.705Z,274.56
2023-02-21T08:56:10.849Z,285.51
2023-02-21T08:57:12.119Z,295.79
2023-02-21T08:58:10.275Z,304.15
2023-02-21T08:59:10.712Z,312.66
2023-02-21T09:00:09.868Z,320.57
2023-02-21T09:01:10.258Z,327.25
2023-02-21T09:02:10.600Z,329.90
2023-02-21T09:03:11.046Z,330.69
2023-02-21T09:04:10.123Z,332.97
2023-02-21T09:05:10.514Z,334.64
2023-02-21T09:06:10.833Z,336.99
2023-02-21T09:07:10.158Z,367.54
2023-02-21T09:08:10.570Z,393.10
2023-02-21T09:09:10.785Z,414.39
2023-02-21T09:10:09.972Z,433.05
2023-02-21T09:11:11.342Z,441.97
2023-02-21T09:12:11.625Z,441.07
2023-02-21T09:13:11.974Z,434.76
2023-02-21T09:14:10.304Z,433.32
2023-02-21T09:15:11.292Z,437.57
2023-02-21T09:16:10.954Z,439.81
2023-02-21T09:17:11.194Z,438.71
2023-02-21T09:18:10.498Z,434.24
2023-02-21T09:19:10.795Z,431.78
2023-02-21T09:20:10.201Z,432.19
2023-02-21T09:21:10.435Z,433.62
2023-02-21T09:22:09.691Z,436.22
2023-02-21T09:23:10.035Z,440.47
2023-02-21T09:24:11.335Z,446.09
2023-02-21T09:25:10.582Z,448.52
2023-02-21T09:26:09.897Z,447.05
2023-02-21T09:27:10.611Z,445.99
2023-02-21T09:28:10.506Z,453.08
2023-02-21T09:29:09.861Z,471.36
2023-02-21T09:30:10.173Z,488.53
2023-02-21T09:31:10.406Z,506.38
2023-02-21T09:32:10.717Z,534.47
2023-02-21T09:33:10.032Z,543.37
2023-02-21T09:34:11.241Z,574.65
2023-02-21T09:35:09.595Z,679.56
2023-02-21T09:36:10.858Z,723.25
2023-02-21T09:37:10.204Z,642.10
2023-02-21T09:38:09.500Z,748.80
2023-02-21T09:39:09.832Z,792.50
2023-02-21T09:40:10.187Z,696.85
2023-02-21T09:41:09.418Z,799.91
2023-02-21T09:42:09.858Z,702.82
2023-02-21T09:43:10.109Z,641.51
2023-02-21T09:44:10.397Z,674.23
2023-02-21T09:45:09.632Z,781.47
2023-02-21T09:46:10.107Z,699.34
2023-02-21T09:47:10.240Z,638.06
2023-02-21T09:48:09.538Z,850.95
2023-02-21T09:49:09.858Z,835.53
2023-02-21T09:50:12.297Z,690.53
2023-02-21T09:51:09.353Z,786.18
2023-02-21T09:52:09.667Z,712.98
2023-02-21T09:53:09.967Z,815.38
2023-02-21T09:54:09.237Z,883.15
2023-02-21T09:55:09.515Z,681.71
2023-02-21T09:56:09.866Z,759.96
2023-02-21T09:57:10.162Z,744.73
2023-02-21T09:58:09.341Z,817.69
2023-02-21T09:59:09.670Z,730.41
2023-02-21T10:00:10.000Z,709.46
2023-02-21T10:01:12.815Z,738.72
2023-02-21T10:02:10.634Z,732.90
2023-02-21T10:03:10.853Z,702.39
2023-02-21T10:04:09.085Z,749.40
2023-02-21T10:05:09.390Z,859.72
2023-02-21T10:06:10.593Z,831.02
2023-02-21T10:07:09.951Z,776.09
2023-02-21T10:08:09.318Z,827.39
2023-02-21T10:09:09.513Z,872.98
2023-02-21T10:10:09.789Z,745.26
2023-02-21T10:11:10.134Z,873.10
2023-02-21T10:12:10.253Z,922.14
2023-02-21T10:13:09.658Z,902.71
2023-02-21T10:14:09.887Z,864.81
2023-02-21T10:15:10.205Z,926.84
2023-02-21T10:16:09.718Z,913.49
2023-02-21T10:17:09.718Z,878.82
2023-02-21T10:18:09.933Z,831.85
2023-02-21T10:19:09.462Z,825.99
2023-02-21T10:20:09.561Z,811.91
2023-02-21T10:21:10.818Z,702.69
2023-02-21T10:22:09.099Z,881.21
2023-02-21T10:23:09.436Z,917.40
2023-02-21T10:24:09.837Z,916.22
2023-02-21T10:25:09.898Z,933.43
2023-02-21T10:26:09.268Z,938.40
2023-02-21T10:27:10.517Z,911.51
2023-02-21T10:28:08.787Z,905.14
2023-02-21T10:29:10.288Z,869.10
2023-02-21T10:30:09.515Z,915.08
2023-02-21T10:31:08.744Z,929.03
2023-02-21T10:32:09.052Z,938.90
2023-02-21T10:33:10.249Z,948.41
2023-02-21T10:34:10.524Z,937.82
2023-02-21T10:35:08.846Z,941.40
2023-02-21T10:36:09.308Z,943.00
2023-02-21T10:37:09.400Z,948.72
2023-02-21T10:38:08.644Z,958.75
2023-02-21T10:39:08.960Z,966.48
2023-02-21T10:40:11.092Z,971.14
2023-02-21T10:41:11.698Z,980.72
2023-02-21T10:42:08.816Z,987.09
2023-02-21T10:43:09.118Z,982.32
2023-02-21T10:44:09.417Z,967.70
2023-02-21T10:45:09.656Z,972.62
2023-02-21T10:46:18.880Z,973.36
2023-02-21T10:47:12.444Z,976.88
2023-02-21T10:48:11.682Z,965.89
2023-02-21T10:49:09.911Z,975.77
2023-02-21T10:50:16.451Z,975.61
2023-02-21T10:51:10.461Z,988.50
2023-02-21T10:52:08.741Z,981.54
2023-02-21T10:53:10.015Z,985.24
2023-02-21T10:54:09.256Z,978.32
2023-02-21T10:55:26.356Z,984.97
2023-02-21T10:56:09.791Z,990.81
2023-02-21T10:57:10.255Z,1000.56
2023-02-21T10:58:09.349Z,1003.61
2023-02-21T10:59:08.577Z,1007.19
2023-02-21T11:00:08.860Z,1018.04
2023-02-21T11:01:10.163Z,1013.58
2023-02-21T11:02:08.452Z,1014.02
2023-02-21T11:03:08.632Z,997.73
2023-02-21T11:04:09.858Z,1003.43
2023-02-21T11:05:10.149Z,1004.38
2023-02-21T11:06:09.392Z,1017.61
2023-02-21T11:07:09.613Z,1023.71
2023-02-21T11:08:08.965Z,1014.78
2023-02-21T11:09:09.138Z,1026.72
2023-02-21T11:10:11.588Z,1011.33
2023-02-21T11:11:09.707Z,1013.80
2023-02-21T11:12:14.273Z,1008.34
2023-02-21T11:13:08.190Z,1018.17
2023-02-21T11:14:08.528Z,1028.94
2023-02-21T11:15:08.704Z,1025.55
2023-02-21T11:16:09.080Z,1032.14
2023-02-21T11:17:11.582Z,944.28
2023-02-21T11:18:11.616Z,1036.65
2023-02-21T11:19:08.758Z,1012.66
2023-02-21T11:20:09.026Z,1019.54
2023-02-21T11:21:14.922Z,933.63
2023-02-21T11:22:10.502Z,963.26
2023-02-21T11:23:09.782Z,1015.91
2023-02-21T11:24:08.024Z,995.09
2023-02-21T11:25:08.320Z,1027.51
2023-02-21T11:26:08.513Z,1069.17
2023-02-21T11:27:08.756Z,999.20
2023-02-21T11:28:07.950Z,1046.91
2023-02-21T11:29:09.215Z,1066.22
2023-02-21T11:30:08.553Z,1082.48
2023-02-21T11:31:09.753Z,1091.68
2023-02-21T11:32:12.053Z,1087.01
2023-02-21T11:33:08.088Z,1089.76
2023-02-21T11:34:08.335Z,1084.87
2023-02-21T11:35:08.567Z,1093.22
2023-02-21T11:36:08.832Z,1106.29
2023-02-21T11:37:09.006Z,1110.29
2023-02-21T11:38:09.185Z,1112.17
2023-02-21T11:39:08.425Z,1111.98
2023-02-21T11:40:08.758Z,1109.67
2023-02-21T11:41:08.957Z,1109.35
2023-02-21T11:42:08.046Z,1112.48
2023-02-21T11:43:09.302Z,1113.13
2023-02-21T11:44:08.517Z,1119.44
2023-02-21T11:45:08.723Z,1118.54
2023-02-21T11:46:08.955Z,1118.78
2023-02-21T11:47:09.253Z,1121.12
2023-02-21T11:48:10.434Z,1120.48
2023-02-21T11:49:11.607Z,1120.84
2023-02-21T11:50:10.883Z,1124.32
2023-02-21T11:51:08.993Z,1126.29
2023-02-21T11:52:09.249Z,1127.09
2023-02-21T11:53:08.465Z,1111.96
2023-02-21T11:54:09.552Z,1121.38
2023-02-21T11:55:09.793Z,1117.78
2023-02-21T11:56:09.082Z,1117.31
2023-02-21T11:57:08.265Z,1114.72
2023-02-21T11:58:09.655Z,1112.20
2023-02-21T11:59:09.780Z,1107.39
2023-02-21T12:00:09.557Z,1111.28
2023-02-21T12:01:09.190Z,1103.79
2023-02-21T12:02:08.420Z,1100.54
2023-02-21T12:03:10.580Z,1085.80
2023-02-21T12:04:08.903Z,1084.75
2023-02-21T12:05:09.049Z,1064.79
2023-02-21T12:06:09.299Z,1074.07
2023-02-21T12:07:09.489Z,1079.52
2023-02-21T12:08:09.797Z,1065.09
2023-02-21T12:09:08.909Z,1095.90
2023-02-21T12:10:11.259Z,1127.10
2023-02-21T12:11:08.312Z,1131.86
2023-02-21T12:12:10.609Z,1132.87
2023-02-21T12:13:08.797Z,1132.84
2023-02-21T12:14:09.059Z,1133.80
2023-02-21T12:15:08.208Z,1134.44
2023-02-21T12:16:10.536Z,1129.41
2023-02-21T12:17:08.673Z,1129.76
2023-02-21T12:18:08.923Z,1133.15
2023-02-21T12:19:10.212Z,1131.87
2023-02-21T12:20:10.473Z,1133.56
2023-02-21T12:21:08.619Z,1129.80
2023-02-21T12:22:07.890Z,1120.56
2023-02-21T12:23:09.088Z,1122.81
2023-02-21T12:24:07.247Z,1119.73
2023-02-21T12:25:08.552Z,1115.89
2023-02-21T12:26:08.779Z,1114.90
2023-02-21T12:27:07.969Z,1114.88
2023-02-21T12:28:08.215Z,1098.39
2023-02-21T12:29:07.358Z,1087.21
2023-02-21T12:30:09.725Z,1095.52
2023-02-21T12:31:17.644Z,1079.91
2023-02-21T12:32:09.205Z,1059.48
2023-02-21T12:33:08.308Z,1068.84
2023-02-21T12:34:09.472Z,1070.62
2023-02-21T12:35:08.741Z,1069.92
2023-02-21T12:36:10.958Z,1071.00
2023-02-21T12:37:09.102Z,1073.33
2023-02-21T12:38:08.396Z,1057.27
2023-02-21T12:39:09.552Z,1044.23
2023-02-21T12:40:07.807Z,1032.32
2023-02-21T12:41:08.994Z,1018.13
2023-02-21T12:42:10.279Z,1025.74
2023-02-21T12:43:08.534Z,1027.20
2023-02-21T12:44:08.712Z,1026.77
2023-02-21T12:45:08.838Z,1034.74
2023-02-21T12:46:10.191Z,1032.41
2023-02-21T12:47:09.393Z,1035.99
2023-02-21T12:48:08.523Z,1042.66
2023-02-21T12:49:08.888Z,1062.74
2023-02-21T12:50:07.939Z,1060.85
2023-02-21T12:51:09.104Z,1059.03
2023-02-21T12:52:09.354Z,1057.51